createdAt,value
2019-02-02T00:00:54.581Z,98255.39
2019-02-02T00:03:43.554Z,98251.74
2019-02-02T00:06:32.398Z,98172.73
2019-02-02T00:09:21.300Z,98247.98
2019-02-02T00:12:10.172Z,98241.95
2019-02-02T00:14:59.021Z,98238.78
2019-02-02T00:17:47.844Z,98249.23
2019-02-02T00:20:29.996Z,98239.84
2019-02-02T00:23:18.818Z,98236.31
2019-02-02T00:26:07.794Z,98212.66
2019-02-02T00:28:56.607Z,98237.45
2019-02-02T00:31:45.434Z,98234.95
2019-02-02T00:34:34.236Z,98234.25
2019-02-02T00:37:23.092Z,98234.91
2019-02-02T00:39:52.594Z,98234.44
2019-02-02T00:42:41.569Z,98233.73
2019-02-02T00:45:30.441Z,98227.61
2019-02-02T00:48:19.348Z,98226.69
2019-02-02T00:51:08.262Z,98220.75
2019-02-02T00:53:57.066Z,98222.55
2019-02-02T00:56:45.924Z,98226.87
2019-02-02T00:59:34.743Z,98231.40
2019-02-02T01:02:23.567Z,98235.93
2019-02-02T01:05:33.311Z,98232.28
2019-02-02T01:08:22.266Z,98228.04
2019-02-02T01:10:51.731Z,98226.78
2019-02-02T01:13:40.551Z,98231.53
2019-02-02T01:16:29.440Z,98233.55
2019-02-02T01:19:18.415Z,98237.60
2019-02-02T01:22:00.282Z,98234.97
2019-02-02T01:24:49.075Z,98242.09
2019-02-02T01:27:38.175Z,98223.52
2019-02-02T01:30:27.069Z,98203.38
2019-02-02T01:33:15.893Z,98243.13
2019-02-02T01:36:04.795Z,98242.20
2019-02-02T01:38:53.594Z,98244.04
2019-02-02T01:41:42.440Z,98242.67
2019-02-02T01:44:23.867Z,98246.98
2019-02-02T01:47:32.035Z,98245.41
2019-02-02T01:50:41.780Z,98242.89
2019-02-02T01:53:30.615Z,98233.56
2019-02-02T01:56:19.440Z,98243.55
2019-02-02T01:59:08.246Z,98239.45
2019-02-02T02:01:57.117Z,98246.72
2019-02-02T02:04:45.913Z,98247.93
2019-02-02T02:07:34.759Z,98246.26
2019-02-02T02:10:23.641Z,98249.20
2019-02-02T02:13:12.569Z,98249.77
2019-02-02T02:16:01.440Z,98247.37
2019-02-02T02:18:50.344Z,98176.86
2019-02-02T02:21:32.268Z,98271.06
2019-02-02T02:24:14.313Z,98267.67
2019-02-02T02:27:03.190Z,98274.83
2019-02-02T02:29:52.194Z,98267.02
2019-02-02T02:32:41.045Z,98279.30
2019-02-02T02:35:29.899Z,98274.95
2019-02-02T02:38:18.788Z,98282.02
2019-02-02T02:41:07.690Z,98277.94
2019-02-02T02:43:56.491Z,98281.77
2019-02-02T02:46:45.384Z,98286.12
2019-02-02T02:49:34.265Z,98280.41
2019-02-02T02:52:23.103Z,98285.31
2019-02-02T02:58:27.344Z,98289.95
2019-02-02T03:01:16.218Z,98296.78
2019-02-02T03:04:05.329Z,98297.70
2019-02-02T03:06:54.117Z,98303.16
2019-02-02T03:09:42.962Z,98235.38
2019-02-02T03:12:31.759Z,98302.28
2019-02-02T03:15:20.758Z,98308.44
2019-02-02T03:18:09.624Z,98312.53
2019-02-02T03:20:58.454Z,98312.91
2019-02-02T03:23:47.254Z,98318.70
2019-02-02T03:26:29.306Z,98317.55
2019-02-02T03:29:18.175Z,98317.77
2019-02-02T03:32:07.019Z,98316.63
2019-02-02T03:34:55.829Z,98320.94
2019-02-02T03:37:44.757Z,98315.70
2019-02-02T03:40:33.632Z,98314.34
2019-02-02T03:43:22.471Z,98332.30
2019-02-02T03:46:11.289Z,98335.83
2019-02-02T03:49:00.207Z,98331.52
2019-02-02T03:51:49.012Z,98332.66
2019-02-02T03:54:37.839Z,98334.58
2019-02-02T03:57:26.639Z,98327.77
2019-02-02T04:00:36.461Z,98331.86
2019-02-02T04:03:25.288Z,98329.34
2019-02-02T04:06:14.189Z,98332.30
2019-02-02T04:09:03.223Z,98334.47
2019-02-02T04:11:52.154Z,98336.61
2019-02-02T04:14:40.928Z,98337.97
2019-02-02T04:17:29.795Z,98339.70
2019-02-02T04:20:39.535Z,98341.63
2019-02-02T04:23:21.284Z,98333.81
2019-02-02T04:26:10.129Z,98341.99
2019-02-02T04:28:58.960Z,98341.41
2019-02-02T04:31:47.744Z,98337.53
2019-02-02T04:34:36.730Z,98340.27
2019-02-02T04:37:25.531Z,98336.17
2019-02-02T04:40:35.310Z,98343.21
2019-02-02T04:43:24.147Z,98337.53
2019-02-02T04:46:12.991Z,98333.22
2019-02-02T04:49:01.809Z,98340.05
2019-02-02T04:51:50.643Z,98336.53
2019-02-02T04:54:39.432Z,98335.17
2019-02-02T04:57:28.261Z,98334.36
2019-02-02T05:00:36.387Z,98337.31
2019-02-02T05:03:25.239Z,98343.91
2019-02-02T05:06:14.075Z,98343.91
2019-02-02T05:09:02.946Z,98297.09
2019-02-02T05:11:51.775Z,98349.77
2019-02-02T05:14:40.602Z,98273.03
2019-02-02T05:17:29.431Z,98360.50
2019-02-02T05:20:38.271Z,98361.05
2019-02-02T05:23:20.424Z,98364.15
2019-02-02T05:26:09.220Z,98369.60
2019-02-02T05:28:58.062Z,98372.66
2019-02-02T05:31:46.888Z,98364.81
2019-02-02T05:34:35.764Z,98364.03
2019-02-02T05:37:24.690Z,98366.77
2019-02-02T05:40:34.447Z,98364.26
2019-02-02T05:43:23.284Z,98359.02
2019-02-02T05:46:12.090Z,98363.34
2019-02-02T05:49:00.964Z,98363.56
2019-02-02T05:51:49.761Z,98374.69
2019-02-02T05:54:19.248Z,98373.55
2019-02-02T05:57:08.074Z,98378.09
2019-02-02T05:59:56.881Z,98375.58
2019-02-02T06:02:45.803Z,98375.58
2019-02-02T06:05:34.696Z,98384.80
2019-02-02T06:08:23.620Z,98382.84
2019-02-02T06:11:12.497Z,98386.83
2019-02-02T06:14:01.324Z,98385.69
2019-02-02T06:16:50.317Z,98392.50
2019-02-02T06:19:39.154Z,98400.47
2019-02-02T06:22:28.039Z,98398.30
2019-02-02T06:25:17.049Z,98398.30
2019-02-02T06:28:05.969Z,98405.11
2019-02-02T06:30:54.775Z,98402.61
2019-02-02T06:33:43.619Z,98406.92
2019-02-02T06:36:32.426Z,98408.29
2019-02-02T06:39:21.344Z,98415.11
2019-02-02T06:42:10.175Z,98411.83
2019-02-02T06:44:59.028Z,98418.87
2019-02-02T06:47:40.264Z,98386.11
2019-02-02T06:50:29.200Z,98423.73
2019-02-02T06:53:18.087Z,98428.86
2019-02-02T06:56:06.985Z,98435.91
2019-02-02T06:58:55.808Z,98436.13
2019-02-02T07:01:44.917Z,98436.68
2019-02-02T07:06:51.019Z,98442.36
2019-02-02T07:09:40.144Z,98446.90
2019-02-02T07:12:29.120Z,98441.89
2019-02-02T07:15:39.007Z,98358.14
2019-02-02T07:18:47.998Z,98464.16
2019-02-02T07:21:21.174Z,98461.57
2019-02-02T07:24:07.228Z,98469.98
2019-02-02T07:26:56.123Z,98455.95
2019-02-02T07:29:44.943Z,98473.48
2019-02-02T07:32:33.804Z,98468.40
2019-02-02T07:35:22.871Z,98476.22
2019-02-02T07:38:11.821Z,98491.45
2019-02-02T07:41:00.683Z,98495.55
2019-02-02T07:43:49.501Z,98502.59
2019-02-02T07:46:38.289Z,98498.27
2019-02-02T07:49:27.138Z,98504.31
2019-02-02T07:52:15.999Z,98508.05
2019-02-02T07:58:20.189Z,98508.39
2019-02-02T08:01:09.010Z,98517.38
2019-02-02T08:03:57.821Z,98522.84
2019-02-02T08:06:46.661Z,98533.76
2019-02-02T08:09:35.546Z,98538.08
2019-02-02T08:12:24.407Z,98541.03
2019-02-02T08:15:34.104Z,98542.03
2019-02-02T08:18:23.013Z,98551.03
2019-02-02T08:21:12.001Z,98545.00
2019-02-02T08:23:53.731Z,98559.55
2019-02-02T08:26:42.651Z,98558.08
2019-02-02T08:29:31.583Z,98561.26
2019-02-02T08:32:20.421Z,98562.71
2019-02-02T08:35:09.319Z,98570.56
2019-02-02T08:37:39.033Z,98574.52
2019-02-02T08:40:27.809Z,98576.70
2019-02-02T08:43:16.649Z,98587.25
2019-02-02T08:46:05.526Z,98591.02
2019-02-02T08:48:54.359Z,98596.38
2019-02-02T08:51:43.173Z,98600.55
2019-02-02T08:54:32.033Z,98602.59
2019-02-02T08:57:20.889Z,98604.63
2019-02-02T09:00:29.004Z,98611.20
2019-02-02T09:03:17.590Z,98609.50
2019-02-02T09:06:06.190Z,98624.28
2019-02-02T09:08:55.084Z,98626.88
2019-02-02T09:11:43.914Z,98635.73
2019-02-02T09:14:32.753Z,98630.97
2019-02-02T09:17:21.619Z,98630.27
2019-02-02T09:20:31.374Z,98640.51
2019-02-02T09:23:12.895Z,98553.98
2019-02-02T09:25:42.476Z,98635.72
2019-02-02T09:28:31.351Z,98641.73
2019-02-02T09:31:20.188Z,98642.77
2019-02-02T09:34:09.058Z,98646.17
2019-02-02T09:36:57.918Z,98644.87
2019-02-02T09:39:46.777Z,98643.84
2019-02-02T09:42:35.656Z,98646.11
2019-02-02T09:45:25.536Z,98645.08
2019-02-02T09:48:14.411Z,98653.35
2019-02-02T09:51:03.260Z,98647.55
2019-02-02T09:53:53.608Z,98652.87
2019-02-02T09:56:42.694Z,98648.30
2019-02-02T09:59:31.609Z,98647.81
2019-02-02T10:02:20.595Z,98661.59
2019-02-02T10:05:09.474Z,98658.27
2019-02-02T10:07:39.065Z,98662.11
2019-02-02T10:10:47.175Z,98667.55
2019-02-02T10:13:36.025Z,98667.28
2019-02-02T10:16:24.909Z,98667.46
2019-02-02T10:19:14.715Z,98671.52
2019-02-02T10:22:04.484Z,98674.44
2019-02-02T10:24:45.823Z,98679.86
2019-02-02T10:27:34.787Z,98683.70
2019-02-02T10:30:44.599Z,98676.38
2019-02-02T10:33:33.472Z,98677.94
2019-02-02T10:36:15.223Z,98681.29
2019-02-02T10:39:24.776Z,98602.11
2019-02-02T10:42:13.699Z,98688.41
2019-02-02T10:45:02.565Z,98659.28
2019-02-02T10:47:51.783Z,98692.57
2019-02-02T10:50:40.740Z,98696.84
2019-02-02T10:53:29.651Z,98691.33
2019-02-02T10:56:18.486Z,98693.78
2019-02-02T10:58:48.034Z,98641.16
2019-02-02T11:01:36.919Z,98702.38
2019-02-02T11:04:06.650Z,98696.40
2019-02-02T11:06:55.605Z,98694.56
2019-02-02T11:09:51.665Z,98700.91
2019-02-02T11:12:40.628Z,98658.67
2019-02-02T11:15:29.580Z,98704.52
2019-02-02T11:18:18.544Z,98638.08
2019-02-02T11:21:07.445Z,98713.89
2019-02-02T11:23:36.970Z,98718.73
2019-02-02T11:26:18.350Z,98722.18
2019-02-02T11:28:47.927Z,98681.77
2019-02-02T11:31:36.933Z,98724.05
2019-02-02T11:34:25.705Z,98737.97
2019-02-02T11:36:55.242Z,98703.06
2019-02-02T11:39:44.044Z,98741.02
2019-02-02T11:42:32.951Z,98744.61
2019-02-02T11:45:21.863Z,98748.47
2019-02-02T11:48:10.668Z,98747.44
2019-02-02T11:50:59.565Z,98756.03
2019-02-02T11:53:48.454Z,98764.38
2019-02-02T11:56:37.278Z,98762.34
2019-02-02T11:59:26.140Z,98765.67
2019-02-02T12:02:15.047Z,98772.43
2019-02-02T12:08:19.119Z,98788.43
2019-02-02T12:11:07.998Z,98793.13
2019-02-02T12:13:56.879Z,98801.91
2019-02-02T12:16:38.630Z,98808.20
2019-02-02T12:19:27.494Z,98817.79
2019-02-02T12:21:57.002Z,98820.75
2019-02-02T12:24:45.857Z,98819.37
2019-02-02T12:27:34.713Z,98823.70
2019-02-02T12:30:42.908Z,98823.12
2019-02-02T12:33:31.745Z,98829.41
2019-02-02T12:36:20.588Z,98827.66
2019-02-02T12:39:02.226Z,98815.27
2019-02-02T12:41:51.069Z,98821.75
2019-02-02T12:44:39.956Z,98759.61
2019-02-02T12:47:28.852Z,98840.05
2019-02-02T12:50:17.656Z,98841.42
2019-02-02T12:53:06.586Z,98855.12
2019-02-02T12:55:55.400Z,98849.64
2019-02-02T12:58:44.263Z,98856.48
2019-02-02T13:01:33.199Z,98855.12
2019-02-02T13:04:21.994Z,98860.00
2019-02-02T13:07:10.854Z,98853.16
2019-02-02T13:09:59.737Z,98854.22
2019-02-02T13:12:48.613Z,98855.34
2019-02-02T13:15:37.524Z,98858.33
2019-02-02T13:18:26.358Z,98858.55
2019-02-02T13:21:15.293Z,98858.55
2019-02-02T13:24:24.773Z,98862.44
2019-02-02T13:27:06.575Z,98858.33
2019-02-02T13:29:55.367Z,98862.66
2019-02-02T13:32:24.885Z,98862.88
2019-02-02T13:35:34.639Z,98874.28
2019-02-02T13:38:25.160Z,98876.31
2019-02-02T13:41:14.001Z,98881.89
2019-02-02T13:44:02.838Z,98881.52
2019-02-02T13:46:51.635Z,98883.92
2019-02-02T13:49:40.499Z,98884.70
2019-02-02T13:52:29.373Z,98895.11
2019-02-02T13:55:18.208Z,98906.63
2019-02-02T13:58:07.120Z,98906.41
2019-02-02T14:00:56.031Z,98908.94
2019-02-02T14:03:44.834Z,98847.91
2019-02-02T14:06:33.761Z,98933.82
2019-02-02T14:09:22.657Z,98936.71
2019-02-02T14:12:11.575Z,98936.27
2019-02-02T14:15:00.520Z,98939.13
2019-02-02T14:17:49.317Z,98942.35
2019-02-02T14:20:38.171Z,98941.44
2019-02-02T14:23:27.055Z,98942.70
2019-02-02T14:26:15.929Z,98911.25
2019-02-02T14:28:58.061Z,98955.88
2019-02-02T14:31:46.948Z,98966.18
2019-02-02T14:34:40.252Z,98971.55
2019-02-02T14:37:26.469Z,98948.84
2019-02-02T14:39:56.171Z,98986.09
2019-02-02T14:42:45.155Z,98988.05
2019-02-02T15:11:44.694Z,99022.53
2019-02-02T15:20:59.147Z,99014.83
2019-02-02T15:23:31.842Z,99048.22
2019-02-02T15:26:20.746Z,99052.43
2019-02-02T15:29:09.645Z,99047.19
2019-02-02T15:31:51.853Z,99047.09
2019-02-02T15:34:40.763Z,99057.69
2019-02-02T15:37:29.628Z,99063.98
2019-02-02T15:43:16.181Z,99078.32
2019-02-02T15:46:05.115Z,99052.66
2019-02-02T15:48:53.931Z,99101.02
2019-02-02T15:51:42.782Z,99110.45
2019-02-02T15:54:31.713Z,99115.83
2019-02-02T15:57:20.639Z,99129.38
2019-02-02T16:00:30.459Z,99102.31
2019-02-02T16:03:00.234Z,99134.70
2019-02-02T16:05:50.655Z,99143.12
2019-02-02T16:08:20.254Z,99150.40
2019-02-02T16:11:09.188Z,99156.08
2019-02-02T16:13:58.165Z,99159.49
2019-02-02T16:16:47.030Z,99107.17
2019-02-02T16:19:35.902Z,99094.73
2019-02-02T16:22:24.850Z,99170.25
2019-02-02T16:28:10.923Z,99181.95
2019-02-02T16:30:59.854Z,99190.91
2019-02-02T16:33:48.762Z,99134.98
2019-02-02T16:36:37.665Z,99208.84
2019-02-02T16:39:26.536Z,99218.83
2019-02-02T16:42:15.420Z,99220.28
2019-02-02T16:48:19.799Z,99153.53
2019-02-02T16:51:08.756Z,99253.69
2019-02-02T16:53:38.254Z,99264.72
2019-02-02T16:56:27.271Z,99274.12
2019-02-02T16:59:16.097Z,99280.72
2019-02-02T17:02:05.026Z,99292.85
2019-02-02T17:04:53.837Z,99297.29
2019-02-02T17:07:42.866Z,99296.58
2019-02-02T17:13:45.107Z,99294.59
2019-02-02T17:16:33.989Z,99301.02
2019-02-02T17:19:22.899Z,99313.73
2019-02-02T17:22:11.809Z,99314.94
2019-02-02T17:25:22.626Z,99322.72
2019-02-02T17:27:51.747Z,99328.84
2019-02-02T17:30:40.716Z,99333.59
2019-02-02T17:33:29.584Z,99341.30
2019-02-02T17:36:18.439Z,99351.98
2019-02-02T17:39:07.399Z,99359.14
2019-02-02T17:41:56.308Z,99356.48
2019-02-02T17:44:45.168Z,99360.69
2019-02-02T17:47:34.003Z,99366.69
2019-02-02T17:50:43.953Z,99376.00
2019-02-02T17:53:32.866Z,99377.95
2019-02-02T17:56:21.801Z,99391.02
2019-02-02T17:59:10.834Z,99400.56
2019-02-02T18:01:59.862Z,99404.90
2019-02-02T18:04:48.679Z,99411.72
2019-02-02T18:07:37.604Z,99414.45
2019-02-02T18:10:26.530Z,99393.53
2019-02-02T18:13:08.865Z,99431.40
2019-02-02T18:15:57.803Z,99441.73
2019-02-02T18:18:46.622Z,99439.01
2019-02-02T18:21:35.561Z,99440.06
2019-02-02T18:24:24.497Z,99448.80
2019-02-02T18:27:13.622Z,99449.27
2019-02-02T18:29:43.122Z,99454.97
2019-02-02T18:32:32.049Z,99465.89
2019-02-02T18:35:21.151Z,99461.80
2019-02-02T18:38:10.060Z,99454.97
2019-02-02T18:40:58.932Z,99453.84
2019-02-02T18:43:47.793Z,99463.41
2019-02-02T18:46:36.738Z,99474.08
2019-02-02T18:49:25.692Z,99478.75
2019-02-02T18:52:14.587Z,99484.20
2019-02-02T18:55:03.396Z,99496.01
2019-02-02T18:57:52.404Z,99502.02
2019-02-02T19:00:41.313Z,99497.44
2019-02-02T19:03:30.220Z,99500.17
2019-02-02T19:06:19.135Z,99505.15
2019-02-02T19:09:08.345Z,99513.73
2019-02-02T19:11:57.264Z,99511.10
2019-02-02T19:14:39.121Z,99516.62
2019-02-02T19:17:28.051Z,99520.54
2019-02-02T19:19:57.769Z,99527.45
2019-02-02T19:22:46.737Z,99529.70
2019-02-02T19:25:35.760Z,99481.19
2019-02-02T19:28:28.329Z,99550.16
2019-02-02T19:31:15.344Z,99551.29
2019-02-02T19:34:04.302Z,99484.70
2019-02-02T19:36:53.231Z,99559.37
2019-02-02T19:39:44.858Z,99561.80
2019-02-02T19:42:32.628Z,99577.05
2019-02-02T19:45:42.402Z,99584.11
2019-02-02T19:48:31.263Z,99577.20
2019-02-02T19:51:19.752Z,99591.96
2019-02-02T19:54:08.645Z,99608.03
2019-02-02T19:56:57.523Z,99533.38
2019-02-02T19:59:46.477Z,99614.55
2019-02-02T20:02:35.353Z,99615.34
2019-02-02T20:05:28.862Z,99582.63
2019-02-02T20:08:14.970Z,99633.08
2019-02-02T20:11:03.935Z,99637.41
2019-02-02T20:13:52.863Z,99641.26
2019-02-02T20:16:41.803Z,99578.16
2019-02-02T20:19:30.640Z,99655.14
2019-02-02T20:22:19.509Z,99665.42
2019-02-02T20:24:49.067Z,99677.70
2019-02-02T20:27:38.080Z,99686.70
2019-02-02T20:30:47.829Z,99697.30
2019-02-02T20:33:36.635Z,99697.54
2019-02-02T20:36:25.485Z,99703.48
2019-02-02T20:39:07.681Z,99702.94
2019-02-02T20:41:56.632Z,99713.52
2019-02-02T20:44:45.434Z,99717.76
2019-02-02T20:47:34.382Z,99731.27
2019-02-02T20:50:23.323Z,99740.75
2019-02-02T20:53:12.244Z,99743.73
2019-02-02T20:56:01.129Z,99751.92
2019-02-02T20:58:50.013Z,99748.37
2019-02-02T21:01:38.963Z,99761.77
2019-02-02T21:04:21.038Z,99772.20
2019-02-02T21:07:24.080Z,99747.23
2019-02-02T21:10:00.435Z,99795.30
2019-02-02T21:12:49.507Z,99802.50
2019-02-02T21:15:38.360Z,99800.39
2019-02-02T21:18:27.197Z,99769.13
2019-02-02T21:21:16.049Z,99804.38
2019-02-02T21:24:05.351Z,99812.95
2019-02-02T21:26:54.163Z,99745.19
2019-02-02T21:29:36.211Z,99822.06
2019-02-02T21:32:25.083Z,99821.31
2019-02-02T21:35:14.116Z,99842.11
2019-02-02T21:37:43.621Z,99845.21
2019-02-02T21:43:48.529Z,99847.78
2019-02-02T21:46:37.325Z,99859.56
2019-02-02T21:49:26.210Z,99856.09
2019-02-02T21:52:15.076Z,99868.12
2019-02-02T21:58:19.529Z,99873.58
2019-02-02T22:01:08.341Z,99883.12
2019-02-02T22:03:57.205Z,99881.75
2019-02-02T22:06:46.094Z,99884.73
2019-02-02T22:09:27.663Z,99882.83
2019-02-02T22:12:16.580Z,99898.12
2019-02-02T22:15:26.346Z,99899.48
2019-02-02T22:18:15.375Z,99905.76
2019-02-02T22:21:04.373Z,99912.00
2019-02-02T22:23:54.838Z,99912.83
2019-02-02T22:26:43.903Z,99921.25
2019-02-02T22:29:32.829Z,99926.14
2019-02-02T22:32:21.685Z,99935.44
2019-02-02T22:35:10.579Z,99943.86
2019-02-02T22:37:59.476Z,99959.11
2019-02-02T22:40:48.356Z,99967.30
2019-02-02T22:43:37.267Z,99976.84
2019-02-02T22:46:26.196Z,99984.16
2019-02-02T22:49:15.045Z,99993.41
2019-02-02T22:52:04.156Z,100007.30
2019-02-02T22:54:53.004Z,100013.83
2019-02-02T22:57:42.120Z,100019.79
2019-02-02T23:01:09.673Z,100030.13
2019-02-02T23:04:19.653Z,100032.06
2019-02-02T23:10:40.476Z,100045.20
2019-02-02T23:14:08.409Z,100043.87
2019-02-02T23:16:57.498Z,100062.97
2019-02-02T23:19:46.484Z,100060.53
2019-02-02T23:22:37.073Z,100067.60
2019-02-02T23:25:25.940Z,100068.67
2019-02-02T23:28:14.759Z,100072.23
2019-02-02T23:30:56.712Z,100067.02
2019-02-02T23:33:45.583Z,100070.25
2019-02-02T23:36:34.510Z,100071.00
2019-02-02T23:39:23.323Z,100071.80
2019-02-02T23:42:12.244Z,100074.77
2019-02-02T23:45:01.115Z,100085.94
2019-02-02T23:47:49.951Z,100091.97
2019-02-02T23:50:38.827Z,100091.97
2019-02-02T23:53:27.700Z,100064.05
2019-02-02T23:56:16.632Z,100100.94
2019-02-02T23:59:07.257Z,100103.67
